LFLB 231430Z AUTO 33007KT 290V360 CAVOK 13/04 Q1029 NOSIG

ElémentsDécodage
LFLB Station météo située sur l'aérodrome de CHAMBERY Aix-les-Bains
231430Z émis le 23 du mois à 14h30 UTC
AUTO Bulletin édité par un automate
33007KT vent du 330°, 07 noeuds
290V360 vent de direction variable entre 290° et 360°
CAVOK Ceiling And Visibility OK
- Visibilité de 10 Km ou plus
- Pas de nuage au-dessous de 1500m ou au-dessous de l'altitude minimale du secteur la plus élevée (si>1500m) et absence de CB
- pas de temps présent significatif
13/04 température 13°C, point de rosée 04°C
 soit une humidité relative de 54%
Q1029 la pression au niveau de la mer (QNH) est de 1029 hPa
NOSIG Pas de changement significatif prévu au cours des deux heures suivant l'heure de l'observation